createdAt,value
2022-10-23T00:01:26.769Z,86.89
2022-10-23T00:03:57.247Z,86.90
2022-10-23T00:06:26.684Z,86.70
2022-10-23T00:08:55.651Z,87.26
2022-10-23T00:11:26.733Z,87.20
2022-10-23T00:13:56.920Z,87.05
2022-10-23T00:16:27.000Z,87.20
2022-10-23T00:18:55.158Z,87.23
2022-10-23T00:21:24.057Z,87.41
2022-10-23T00:23:52.486Z,87.22
2022-10-23T00:26:21.146Z,87.18
2022-10-23T00:28:51.435Z,86.88
2022-10-23T00:31:21.506Z,86.87
2022-10-23T00:33:51.742Z,86.85
2022-10-23T00:36:22.127Z,86.61
2022-10-23T00:38:52.456Z,86.38
2022-10-23T00:41:24.003Z,86.07
2022-10-23T00:44:06.941Z,85.71
2022-10-23T00:46:36.671Z,85.60
2022-10-23T00:49:08.671Z,85.51
2022-10-23T00:51:41.566Z,85.36
2022-10-23T00:54:27.090Z,85.25
2022-10-23T00:57:04.446Z,84.84
2022-10-23T00:59:33.712Z,85.20
2022-10-23T01:02:02.315Z,85.08
2022-10-23T01:04:33.296Z,85.34
2022-10-23T01:07:10.756Z,84.96
2022-10-23T01:09:46.287Z,84.86
2022-10-23T01:12:20.969Z,84.88
2022-10-23T01:15:02.267Z,84.55
2022-10-23T01:17:40.845Z,84.93
2022-10-23T01:20:33.948Z,84.75
2022-10-23T01:23:30.567Z,84.85
2022-10-23T01:26:12.627Z,84.62
2022-10-23T01:28:49.171Z,84.72
2022-10-23T01:31:27.278Z,84.96
2022-10-23T01:34:00.232Z,85.54
2022-10-23T01:36:33.863Z,85.65
2022-10-23T01:39:07.958Z,85.75
2022-10-23T01:41:41.838Z,85.05
2022-10-23T01:44:17.793Z,85.59
2022-10-23T01:46:48.590Z,85.66
2022-10-23T01:49:18.822Z,85.83
2022-10-23T01:51:57.190Z,86.20
2022-10-23T01:54:35.165Z,86.57
2022-10-23T01:57:04.850Z,86.46
2022-10-23T01:59:39.950Z,86.28
2022-10-23T02:02:12.945Z,86.59
2022-10-23T02:04:49.155Z,86.31
2022-10-23T02:07:18.421Z,86.16
2022-10-23T02:09:47.438Z,86.06
2022-10-23T02:12:25.412Z,86.04
2022-10-23T02:14:58.929Z,86.23
2022-10-23T02:17:34.569Z,86.15
2022-10-23T02:20:15.480Z,86.22
2022-10-23T02:22:52.914Z,86.22
2022-10-23T02:25:26.703Z,86.31
2022-10-23T02:27:59.561Z,86.27
2022-10-23T02:30:39.245Z,85.93
2022-10-23T02:33:13.121Z,85.91
2022-10-23T02:35:42.088Z,85.55
2022-10-23T02:38:32.651Z,85.40
2022-10-23T02:41:12.728Z,84.96
2022-10-23T02:43:51.157Z,84.64
2022-10-23T02:46:26.777Z,84.76
2022-10-23T02:49:09.695Z,84.57
2022-10-23T02:51:48.901Z,84.59
2022-10-23T02:54:33.355Z,84.80
2022-10-23T02:57:07.399Z,84.35
2022-10-23T02:59:44.557Z,84.39
2022-10-23T03:02:22.871Z,84.26
2022-10-23T03:04:53.172Z,84.26
2022-10-23T03:07:22.138Z,84.70
2022-10-23T03:09:50.384Z,84.36
2022-10-23T03:12:19.153Z,84.23
2022-10-23T03:14:49.038Z,84.19
2022-10-23T03:17:19.460Z,84.43
2022-10-23T03:19:48.966Z,84.07
2022-10-23T03:22:17.200Z,83.86
2022-10-23T03:24:46.179Z,83.75
2022-10-23T03:27:14.931Z,83.94
2022-10-23T03:29:43.789Z,84.15
2022-10-23T03:32:12.067Z,84.35
2022-10-23T03:34:41.670Z,85.04
2022-10-23T03:37:10.869Z,85.42
2022-10-23T03:39:39.428Z,85.20
2022-10-23T03:42:07.972Z,85.27
2022-10-23T03:44:37.068Z,85.80
2022-10-23T03:47:06.395Z,86.67
2022-10-23T03:49:34.592Z,86.74
2022-10-23T03:52:09.590Z,87.12
2022-10-23T03:54:38.066Z,87.33
2022-10-23T03:57:06.274Z,87.52
2022-10-23T03:59:34.478Z,87.23
2022-10-23T04:02:03.038Z,86.85
2022-10-23T04:04:31.462Z,86.82
2022-10-23T04:07:00.754Z,86.96
2022-10-23T04:09:31.040Z,87.08
2022-10-23T04:11:59.287Z,86.79
2022-10-23T04:14:30.603Z,86.55
2022-10-23T04:17:00.486Z,86.84
2022-10-23T04:19:29.634Z,87.06
2022-10-23T04:21:59.003Z,86.80
2022-10-23T04:24:27.647Z,87.63
2022-10-23T04:26:57.237Z,87.17
2022-10-23T04:29:31.835Z,87.42
2022-10-23T04:32:00.385Z,87.07
2022-10-23T04:34:30.098Z,87.21
2022-10-23T04:36:58.363Z,87.08
2022-10-23T04:39:26.662Z,87.29
2022-10-23T04:41:56.597Z,87.30
2022-10-23T04:44:26.642Z,87.10
2022-10-23T04:46:55.351Z,87.22
2022-10-23T04:49:25.195Z,87.33
2022-10-23T04:52:12.685Z,87.48
2022-10-23T04:55:13.776Z,87.86
2022-10-23T04:57:48.199Z,87.68
2022-10-23T05:00:17.964Z,87.94
2022-10-23T05:02:53.245Z,87.51
2022-10-23T05:05:22.482Z,87.51
2022-10-23T05:08:18.232Z,87.34
2022-10-23T05:11:08.426Z,87.90
2022-10-23T05:13:45.090Z,87.55
2022-10-23T05:16:21.498Z,87.80
2022-10-23T05:18:50.830Z,88.03
2022-10-23T05:21:25.953Z,87.96
2022-10-23T05:23:55.222Z,87.63
2022-10-23T05:26:23.950Z,87.87
2022-10-23T05:28:56.061Z,88.24
2022-10-23T05:31:25.905Z,87.59
2022-10-23T05:33:58.083Z,87.89
2022-10-23T05:36:27.272Z,87.79
2022-10-23T05:39:02.276Z,87.74
2022-10-23T05:41:39.797Z,87.54
2022-10-23T05:44:09.845Z,87.21
2022-10-23T05:47:09.262Z,87.31
2022-10-23T05:50:03.812Z,87.67
2022-10-23T05:53:11.444Z,87.53
2022-10-23T05:55:53.053Z,87.86
2022-10-23T05:58:41.478Z,88.04
2022-10-23T06:01:49.977Z,87.78
2022-10-23T06:04:32.171Z,87.54
2022-10-23T06:07:38.863Z,87.54
2022-10-23T06:10:09.003Z,87.28
2022-10-23T06:12:41.606Z,87.24
2022-10-23T06:15:14.585Z,86.82
2022-10-23T06:18:04.340Z,87.12
2022-10-23T06:20:37.522Z,87.17
2022-10-23T06:23:11.490Z,87.38
2022-10-23T06:26:07.958Z,87.64
2022-10-23T06:28:46.571Z,88.43
2022-10-23T06:31:19.177Z,88.05
2022-10-23T06:33:49.395Z,88.25
2022-10-23T06:36:17.536Z,87.63
2022-10-23T06:38:46.203Z,87.58
2022-10-23T06:41:17.517Z,87.50
2022-10-23T06:43:49.709Z,87.81
2022-10-23T06:46:26.832Z,88.06
2022-10-23T06:49:19.286Z,88.02
2022-10-23T06:51:49.617Z,87.94
2022-10-23T06:54:22.549Z,88.56
2022-10-23T06:57:12.307Z,87.91
2022-10-23T06:59:45.165Z,88.18
2022-10-23T07:02:13.566Z,88.52
2022-10-23T07:04:43.414Z,88.22
2022-10-23T07:07:19.138Z,88.43
2022-10-23T07:09:49.713Z,88.47
2022-10-23T07:12:17.923Z,88.34
2022-10-23T07:14:52.326Z,88.10
2022-10-23T07:17:20.393Z,88.30
2022-10-23T07:19:50.387Z,87.81
2022-10-23T07:22:18.680Z,87.53
2022-10-23T07:24:51.284Z,87.67
2022-10-23T07:27:27.221Z,87.32
2022-10-23T07:29:58.097Z,87.37
2022-10-23T07:32:30.925Z,87.56
2022-10-23T07:35:10.673Z,87.25
2022-10-23T07:37:41.470Z,86.94
2022-10-23T07:40:11.065Z,86.45
2022-10-23T07:42:45.064Z,86.85
2022-10-23T07:45:13.889Z,86.47
2022-10-23T07:47:45.898Z,86.08
2022-10-23T07:50:16.817Z,85.78
2022-10-23T07:52:45.198Z,86.13
2022-10-23T07:55:15.901Z,86.02
2022-10-23T07:57:49.875Z,85.98
2022-10-23T08:00:31.410Z,85.81
2022-10-23T08:03:10.774Z,85.31
2022-10-23T08:05:40.879Z,84.98
2022-10-23T08:08:10.280Z,84.59
2022-10-23T08:10:42.056Z,84.37
2022-10-23T08:13:14.615Z,84.03
2022-10-23T08:15:58.688Z,83.16
2022-10-23T08:18:49.619Z,83.00
2022-10-23T08:21:21.015Z,82.23
2022-10-23T08:23:51.270Z,81.14
2022-10-23T08:26:19.954Z,80.85
2022-10-23T08:28:48.496Z,80.73
2022-10-23T08:31:18.981Z,80.35
2022-10-23T08:34:10.368Z,80.17
2022-10-23T08:36:40.702Z,80.21
2022-10-23T08:39:09.432Z,78.50
2022-10-23T08:41:44.194Z,76.40
2022-10-23T08:44:22.951Z,74.48
2022-10-23T08:47:00.308Z,73.88
2022-10-23T08:49:51.285Z,73.15
2022-10-23T08:52:27.054Z,73.20
2022-10-23T08:55:03.562Z,73.61
2022-10-23T08:57:40.060Z,73.86
2022-10-23T09:00:15.940Z,75.03
2022-10-23T09:02:47.586Z,75.88
2022-10-23T09:05:20.932Z,76.96
2022-10-23T09:08:02.380Z,78.23
2022-10-23T09:10:43.955Z,79.03
2022-10-23T09:13:38.101Z,79.44
2022-10-23T09:16:16.711Z,80.11
2022-10-23T09:18:45.336Z,80.41
2022-10-23T09:21:13.407Z,80.18
2022-10-23T09:23:43.323Z,80.69
2022-10-23T09:26:16.266Z,80.56
2022-10-23T09:28:48.797Z,80.67
2022-10-23T09:31:19.821Z,80.84
2022-10-23T09:33:59.709Z,80.34
2022-10-23T09:36:30.469Z,80.76
2022-10-23T09:39:01.850Z,81.47
2022-10-23T09:41:32.383Z,81.07
2022-10-23T09:44:02.817Z,81.47
2022-10-23T09:46:42.262Z,81.42
2022-10-23T09:49:18.361Z,82.21
2022-10-23T09:51:55.626Z,82.31
2022-10-23T09:54:25.587Z,83.09
2022-10-23T09:56:56.250Z,83.67
2022-10-23T09:59:29.032Z,83.38
2022-10-23T10:01:59.962Z,83.90
2022-10-23T10:04:39.652Z,84.56
2022-10-23T10:07:19.927Z,84.62
2022-10-23T10:09:49.946Z,84.94
2022-10-23T10:12:32.537Z,84.50
2022-10-23T10:15:05.081Z,84.60
2022-10-23T10:17:41.947Z,84.38
2022-10-23T10:20:32.921Z,83.72
2022-10-23T10:23:08.378Z,83.23
2022-10-23T10:25:41.732Z,82.71
2022-10-23T10:28:30.075Z,82.39
2022-10-23T10:31:10.771Z,82.29
2022-10-23T10:33:53.274Z,82.20
2022-10-23T10:36:40.328Z,81.48
2022-10-23T10:39:18.764Z,80.94
2022-10-23T10:41:58.050Z,80.65
2022-10-23T10:44:43.704Z,79.97
2022-10-23T10:47:21.181Z,80.20
2022-10-23T10:50:02.117Z,80.14
2022-10-23T10:52:49.280Z,80.62
2022-10-23T10:55:26.316Z,80.82
2022-10-23T10:58:01.044Z,81.03
2022-10-23T11:00:32.397Z,81.12
2022-10-23T11:03:03.883Z,82.13
2022-10-23T11:05:34.152Z,82.89
2022-10-23T11:08:07.499Z,83.40
2022-10-23T11:10:40.326Z,83.62
2022-10-23T11:13:26.148Z,84.05
2022-10-23T11:15:59.179Z,84.39
2022-10-23T11:18:31.076Z,84.74
2022-10-23T11:21:09.810Z,84.83
2022-10-23T11:24:19.426Z,84.94
2022-10-23T11:27:02.117Z,84.91
2022-10-23T11:30:14.094Z,84.64
2022-10-23T11:33:07.251Z,84.36
2022-10-23T11:35:54.751Z,84.48
2022-10-23T11:38:28.126Z,83.83
2022-10-23T11:40:59.458Z,83.93
2022-10-23T11:43:29.534Z,83.55
2022-10-23T11:45:59.686Z,82.56
2022-10-23T11:48:40.782Z,82.48
2022-10-23T11:51:28.415Z,81.81
2022-10-23T11:54:24.431Z,80.90
2022-10-23T11:57:09.253Z,80.78
2022-10-23T11:59:52.829Z,81.13
2022-10-23T12:02:31.999Z,80.88
2022-10-23T12:05:05.855Z,81.26
2022-10-23T12:07:37.889Z,81.01
2022-10-23T12:10:09.466Z,80.08
2022-10-23T12:12:41.017Z,79.84
2022-10-23T12:15:24.858Z,79.51
2022-10-23T12:17:56.111Z,80.15
2022-10-23T12:20:40.772Z,80.79
2022-10-23T12:23:22.885Z,80.80
2022-10-23T12:26:07.741Z,81.82
2022-10-23T12:28:41.845Z,80.46
2022-10-23T12:31:26.621Z,82.01
2022-10-23T12:34:06.709Z,82.45
2022-10-23T12:36:52.709Z,83.08
2022-10-23T12:39:30.299Z,83.41
2022-10-23T12:42:02.314Z,83.64
2022-10-23T12:44:30.672Z,82.83
2022-10-23T12:47:03.122Z,83.01
2022-10-23T12:49:35.630Z,83.05
2022-10-23T12:52:06.304Z,83.28
2022-10-23T12:54:41.100Z,84.15
2022-10-23T12:57:21.541Z,84.30
2022-10-23T12:59:50.919Z,84.13
2022-10-23T13:02:24.693Z,83.64
2022-10-23T13:04:56.228Z,83.50
2022-10-23T13:07:27.019Z,83.45
2022-10-23T13:09:59.256Z,83.52
2022-10-23T13:12:31.996Z,83.98
2022-10-23T13:15:03.665Z,84.09
2022-10-23T13:17:36.814Z,83.72
2022-10-23T13:20:27.532Z,83.96
2022-10-23T13:23:01.119Z,85.16
2022-10-23T13:25:32.329Z,84.96
2022-10-23T13:28:14.923Z,85.34
2022-10-23T13:30:46.434Z,84.87
2022-10-23T13:33:24.953Z,84.84
2022-10-23T13:35:58.562Z,85.05
2022-10-23T13:38:32.851Z,84.68
2022-10-23T13:41:03.203Z,84.70
2022-10-23T13:43:33.086Z,84.71
2022-10-23T13:46:02.492Z,85.05
2022-10-23T13:48:31.101Z,85.10
2022-10-23T13:51:13.644Z,84.92
2022-10-23T13:53:41.638Z,84.90
2022-10-23T13:56:12.891Z,85.10
2022-10-23T13:58:42.122Z,85.22
2022-10-23T14:01:21.744Z,85.84
2022-10-23T14:03:50.276Z,86.08
2022-10-23T14:06:20.959Z,85.89
2022-10-23T14:08:49.811Z,85.92
2022-10-23T14:11:21.137Z,86.44
2022-10-23T14:13:50.201Z,85.65
2022-10-23T14:16:21.370Z,84.47
2022-10-23T14:18:50.517Z,83.24
2022-10-23T14:21:22.455Z,83.01
2022-10-23T14:23:52.778Z,83.35
2022-10-23T14:26:27.653Z,83.68
2022-10-23T14:29:00.653Z,83.82
2022-10-23T14:31:33.674Z,84.54
2022-10-23T14:34:01.980Z,84.93
2022-10-23T14:36:43.132Z,85.25
2022-10-23T14:39:19.113Z,85.76
2022-10-23T14:41:48.719Z,85.57
2022-10-23T14:44:18.035Z,84.71
2022-10-23T14:46:46.324Z,84.79
2022-10-23T14:49:15.102Z,84.64
2022-10-23T14:51:45.129Z,84.55
2022-10-23T14:54:13.573Z,83.62
2022-10-23T14:56:42.010Z,82.70
2022-10-23T14:59:11.770Z,82.84
2022-10-23T15:01:45.270Z,82.65
2022-10-23T15:04:15.240Z,81.68
2022-10-23T15:06:47.238Z,82.11
2022-10-23T15:09:15.984Z,82.54
2022-10-23T15:11:44.157Z,82.20
2022-10-23T15:14:12.509Z,81.56
2022-10-23T15:16:42.529Z,80.59
2022-10-23T15:19:15.222Z,80.75
2022-10-23T15:21:50.062Z,80.83
2022-10-23T15:24:18.886Z,80.61
2022-10-23T15:26:47.073Z,81.09
2022-10-23T15:29:16.077Z,81.24
2022-10-23T15:31:48.848Z,81.30
2022-10-23T15:34:19.834Z,81.90
2022-10-23T15:36:50.396Z,82.21
2022-10-23T15:39:21.067Z,82.89
2022-10-23T15:41:54.219Z,83.59
2022-10-23T15:44:24.156Z,84.02
2022-10-23T15:46:53.805Z,84.50
2022-10-23T15:49:22.297Z,84.23
2022-10-23T15:51:52.336Z,83.99
2022-10-23T15:54:21.877Z,84.64
2022-10-23T15:56:51.545Z,84.40
2022-10-23T15:59:24.608Z,84.28
2022-10-23T16:01:53.129Z,84.42
2022-10-23T16:04:21.526Z,84.56
2022-10-23T16:06:51.984Z,84.19
2022-10-23T16:09:20.276Z,84.16
2022-10-23T16:11:48.574Z,84.23
2022-10-23T16:14:19.611Z,84.05
2022-10-23T16:16:48.571Z,83.92
2022-10-23T16:19:17.510Z,84.21
2022-10-23T16:21:46.676Z,83.56
2022-10-23T16:24:16.424Z,83.20
2022-10-23T16:26:50.253Z,83.08
2022-10-23T16:29:18.627Z,82.63
2022-10-23T16:31:47.354Z,82.45
2022-10-23T16:34:15.645Z,83.00
2022-10-23T16:36:45.261Z,83.02
2022-10-23T16:39:33.950Z,83.25
2022-10-23T16:42:21.007Z,83.31
2022-10-23T16:45:12.096Z,83.62
2022-10-23T16:47:40.478Z,83.68
2022-10-23T16:50:09.175Z,83.57
2022-10-23T16:52:37.638Z,83.17
2022-10-23T16:55:08.280Z,83.04
2022-10-23T16:57:36.902Z,82.47
2022-10-23T17:00:06.070Z,82.34
2022-10-23T17:02:35.138Z,82.00
2022-10-23T17:05:04.988Z,81.63
2022-10-23T17:07:34.057Z,81.49
2022-10-23T17:10:02.814Z,81.87
2022-10-23T17:12:32.885Z,81.45
2022-10-23T17:15:01.794Z,81.32
2022-10-23T17:17:30.252Z,81.26
2022-10-23T17:19:58.457Z,81.49
2022-10-23T17:22:27.825Z,81.66
2022-10-23T17:24:56.646Z,81.99
2022-10-23T17:27:24.812Z,82.08
2022-10-23T17:29:54.953Z,81.94
2022-10-23T17:32:23.248Z,81.92
2022-10-23T17:34:51.439Z,81.75
2022-10-23T17:37:19.629Z,81.70
2022-10-23T17:39:47.848Z,81.86
2022-10-23T17:42:16.362Z,81.99
2022-10-23T17:44:44.898Z,82.25
2022-10-23T17:47:15.672Z,82.23
2022-10-23T17:49:45.478Z,82.24
2022-10-23T17:52:15.252Z,82.07
2022-10-23T17:54:43.437Z,81.90
2022-10-23T17:57:12.105Z,82.06
2022-10-23T17:59:40.635Z,82.07
2022-10-23T18:02:09.274Z,81.64
2022-10-23T18:04:39.307Z,81.50
2022-10-23T18:07:07.578Z,81.90
2022-10-23T18:09:36.414Z,81.78
2022-10-23T18:12:06.277Z,81.59
2022-10-23T18:14:37.309Z,81.55
2022-10-23T18:17:06.128Z,81.67
2022-10-23T18:19:34.814Z,81.57
2022-10-23T18:22:04.728Z,81.40
2022-10-23T18:24:33.448Z,81.52
2022-10-23T18:27:01.950Z,81.59
2022-10-23T18:29:30.167Z,81.65
2022-10-23T18:31:58.402Z,81.93
2022-10-23T18:34:27.813Z,81.61
2022-10-23T18:36:57.833Z,81.92
2022-10-23T18:39:27.694Z,81.99
2022-10-23T18:41:59.240Z,82.09
2022-10-23T18:44:29.839Z,82.02
2022-10-23T18:46:59.255Z,82.16
2022-10-23T18:49:28.861Z,82.17
2022-10-23T18:51:58.396Z,82.24
2022-10-23T18:54:28.082Z,81.88
2022-10-23T18:56:56.632Z,82.09
2022-10-23T18:59:24.889Z,81.77
2022-10-23T19:01:53.501Z,82.04
2022-10-23T19:04:21.958Z,82.13
2022-10-23T19:06:52.209Z,82.32
2022-10-23T19:09:21.097Z,82.27
2022-10-23T19:11:51.004Z,82.29
2022-10-23T19:14:19.297Z,82.05
2022-10-23T19:16:58.756Z,82.07
2022-10-23T19:19:31.010Z,82.01
2022-10-23T19:21:59.810Z,81.82
2022-10-23T19:24:33.706Z,81.77
2022-10-23T19:27:04.647Z,81.85
2022-10-23T19:29:33.676Z,81.51
2022-10-23T19:32:01.889Z,81.54
2022-10-23T19:34:30.430Z,81.55
2022-10-23T19:36:58.584Z,81.43
2022-10-23T19:39:26.878Z,81.53
2022-10-23T19:41:55.389Z,81.37
2022-10-23T19:44:25.140Z,80.97
2022-10-23T19:46:53.600Z,81.24
2022-10-23T19:49:23.978Z,81.12
2022-10-23T19:51:52.221Z,81.22
2022-10-23T19:54:20.885Z,81.62
2022-10-23T19:56:49.998Z,81.55
2022-10-23T19:59:18.988Z,81.51
2022-10-23T20:01:49.370Z,81.57
2022-10-23T20:04:18.545Z,81.42
2022-10-23T20:06:47.415Z,81.19
2022-10-23T20:09:15.668Z,81.34
2022-10-23T20:11:45.477Z,81.53
2022-10-23T20:14:14.472Z,81.72
2022-10-23T20:16:45.118Z,81.73
2022-10-23T20:21:48.301Z,82.44
2022-10-23T20:24:18.867Z,81.95
2022-10-23T20:26:49.710Z,81.88
2022-10-23T20:29:18.005Z,82.11
2022-10-23T20:31:46.205Z,82.20
2022-10-23T20:34:16.100Z,82.18
2022-10-23T20:36:47.039Z,81.93
2022-10-23T20:39:18.205Z,81.79
2022-10-23T20:41:46.901Z,81.88
2022-10-23T20:46:51.886Z,81.98
2022-10-23T20:49:22.085Z,82.21
2022-10-23T20:51:55.082Z,82.53
2022-10-23T20:54:24.745Z,82.44
2022-10-23T20:56:52.954Z,82.88
2022-10-23T20:59:21.616Z,82.87
2022-10-23T21:01:53.103Z,82.97
2022-10-23T21:04:27.845Z,82.91
2022-10-23T21:07:13.808Z,83.11
2022-10-23T21:09:42.484Z,83.32
2022-10-23T21:12:10.830Z,83.08
2022-10-23T21:14:39.016Z,83.49
2022-10-23T21:17:08.592Z,83.66
2022-10-23T21:19:39.141Z,83.86
2022-10-23T21:22:07.567Z,83.76
2022-10-23T21:24:35.799Z,83.70
2022-10-23T21:27:04.434Z,83.63
2022-10-23T21:29:32.911Z,83.67
2022-10-23T21:32:02.268Z,83.58
2022-10-23T21:34:31.481Z,83.38
2022-10-23T21:37:17.669Z,82.88
2022-10-23T21:39:47.188Z,82.97
2022-10-23T21:42:16.981Z,82.61
2022-10-23T21:44:45.795Z,82.52
2022-10-23T21:47:14.245Z,82.15
2022-10-23T21:49:44.116Z,82.20
2022-10-23T21:52:16.204Z,82.25
2022-10-23T21:54:47.176Z,81.99
2022-10-23T21:57:16.357Z,82.27
2022-10-23T21:59:45.177Z,82.08
2022-10-23T22:02:14.771Z,81.99
2022-10-23T22:04:43.225Z,81.71
2022-10-23T22:07:14.912Z,81.55
2022-10-23T22:09:45.037Z,81.31
2022-10-23T22:12:13.429Z,81.18
2022-10-23T22:14:42.549Z,81.00
2022-10-23T22:17:11.024Z,81.28
2022-10-23T22:19:39.229Z,81.60
2022-10-23T22:22:07.433Z,81.58
2022-10-23T22:24:36.949Z,82.10
2022-10-23T22:27:06.635Z,81.99
2022-10-23T22:29:35.109Z,81.98
2022-10-23T22:32:03.773Z,81.70
2022-10-23T22:34:52.229Z,81.96
2022-10-23T22:37:20.873Z,82.28
2022-10-23T22:40:14.411Z,82.57
2022-10-23T22:42:49.390Z,83.06
2022-10-23T22:45:17.864Z,83.22
2022-10-23T22:47:46.110Z,83.63
2022-10-23T22:50:14.487Z,83.50
2022-10-23T22:52:42.906Z,83.76
2022-10-23T22:55:12.029Z,83.60
2022-10-23T22:57:40.198Z,83.53
2022-10-23T23:00:12.089Z,83.63
2022-10-23T23:02:40.596Z,83.39
2022-10-23T23:05:12.132Z,83.55
2022-10-23T23:07:40.702Z,83.57
2022-10-23T23:10:09.630Z,83.67
2022-10-23T23:12:38.233Z,83.87
2022-10-23T23:15:07.399Z,83.77
2022-10-23T23:17:41.999Z,83.25
2022-10-23T23:20:11.299Z,83.68
2022-10-23T23:22:39.792Z,83.72
2022-10-23T23:25:10.644Z,83.46
2022-10-23T23:27:40.342Z,83.69
2022-10-23T23:30:10.438Z,83.73
2022-10-23T23:32:40.019Z,83.89
2022-10-23T23:35:08.625Z,84.01
2022-10-23T23:37:36.864Z,84.13
2022-10-23T23:40:05.978Z,84.33
2022-10-23T23:42:34.485Z,83.96
2022-10-23T23:45:14.296Z,84.22
2022-10-23T23:47:44.860Z,84.27
2022-10-23T23:50:13.963Z,84.20
2022-10-23T23:52:42.373Z,84.29
2022-10-23T23:55:11.409Z,84.45
2022-10-23T23:57:39.850Z,83.70
